<?xml version="1.0" encoding="UTF-8"?>
<gpx
version="1.1"
creator="Kashmir3D 9.370 - http://www.kashmir3d.com"
xmlns:xsi="http://www.w3.org/2001/XMLSchema-instance"
xmlns="http://www.topografix.com/GPX/1/1"
xmlns:kashmir3d="http://www.kashmir3d.com/namespace/kashmir3d"
xsi:schemaLocation="http://www.topografix.com/GPX/1/1 http://www.topografix.com/GPX/1/1/gpx.xsd
	http://www.kashmir3d.com/namespace/kashmir3d http://www.kashmir3d.com/namespace/kashmir3d.xsd">
<trk>
 <name>鳩吹山.KML(鳩吹山)</name>
 <number>1</number>
 <extensions>
 <kashmir3d:line_color>0000ff</kashmir3d:line_color>
 <kashmir3d:line_size>3</kashmir3d:line_size>
 <kashmir3d:line_style>1</kashmir3d:line_style>
 <kashmir3d:icon>901001</kashmir3d:icon>
 </extensions>
<trkseg>
<trkpt lat="35.413864" lon="136.996770">
 <ele>126.4</ele>
 <time>2022-05-04T05:38:43Z</time>
</trkpt>
<trkpt lat="35.413761" lon="136.996963">
 <ele>124.4</ele>
 <time>2022-05-04T05:38:44Z</time>
</trkpt>
<trkpt lat="35.413675" lon="136.997177">
 <ele>122.7</ele>
 <time>2022-05-04T05:38:44Z</time>
</trkpt>
<trkpt lat="35.413598" lon="136.997349">
 <ele>123.1</ele>
 <time>2022-05-04T05:38:44Z</time>
</trkpt>
<trkpt lat="35.413512" lon="136.997478">
 <ele>122.8</ele>
 <time>2022-05-04T05:38:45Z</time>
</trkpt>
<trkpt lat="35.413392" lon="136.997682">
 <ele>121.2</ele>
 <time>2022-05-04T05:38:45Z</time>
</trkpt>
<trkpt lat="35.413289" lon="136.997864">
 <ele>120.4</ele>
 <time>2022-05-04T05:38:45Z</time>
</trkpt>
<trkpt lat="35.413177" lon="136.998068">
 <ele>119</ele>
 <time>2022-05-04T05:38:46Z</time>
</trkpt>
<trkpt lat="35.413151" lon="136.998207">
 <ele>118.2</ele>
 <time>2022-05-04T05:38:46Z</time>
</trkpt>
<trkpt lat="35.413143" lon="136.998293">
 <ele>117.2</ele>
 <time>2022-05-04T05:38:47Z</time>
</trkpt>
<trkpt lat="35.413220" lon="136.998304">
 <ele>118.6</ele>
 <time>2022-05-04T05:38:47Z</time>
</trkpt>
<trkpt lat="35.413254" lon="136.998390">
 <ele>119.9</ele>
 <time>2022-05-04T05:38:48Z</time>
</trkpt>
<trkpt lat="35.413331" lon="136.998422">
 <ele>125</ele>
 <time>2022-05-04T05:38:48Z</time>
</trkpt>
<trkpt lat="35.413426" lon="136.998443">
 <ele>126.5</ele>
 <time>2022-05-04T05:38:48Z</time>
</trkpt>
<trkpt lat="35.413452" lon="136.998368">
 <ele>128.9</ele>
 <time>2022-05-04T05:38:49Z</time>
</trkpt>
<trkpt lat="35.413520" lon="136.998336">
 <ele>130.7</ele>
 <time>2022-05-04T05:38:49Z</time>
</trkpt>
<trkpt lat="35.413495" lon="136.998272">
 <ele>131.5</ele>
 <time>2022-05-04T05:38:49Z</time>
</trkpt>
<trkpt lat="35.413580" lon="136.998229">
 <ele>133.7</ele>
 <time>2022-05-04T05:38:50Z</time>
</trkpt>
<trkpt lat="35.413640" lon="136.998132">
 <ele>138.2</ele>
 <time>2022-05-04T05:38:50Z</time>
</trkpt>
<trkpt lat="35.413718" lon="136.998004">
 <ele>144.8</ele>
 <time>2022-05-04T05:38:51Z</time>
</trkpt>
<trkpt lat="35.413786" lon="136.997928">
 <ele>148.1</ele>
 <time>2022-05-04T05:38:51Z</time>
</trkpt>
<trkpt lat="35.413889" lon="136.997886">
 <ele>152.8</ele>
 <time>2022-05-04T05:38:51Z</time>
</trkpt>
<trkpt lat="35.413975" lon="136.997853">
 <ele>156.4</ele>
 <time>2022-05-04T05:38:51Z</time>
</trkpt>
<trkpt lat="35.414070" lon="136.997789">
 <ele>162.3</ele>
 <time>2022-05-04T05:38:52Z</time>
</trkpt>
<trkpt lat="35.414121" lon="136.997692">
 <ele>166</ele>
 <time>2022-05-04T05:38:52Z</time>
</trkpt>
<trkpt lat="35.414164" lon="136.997617">
 <ele>169.2</ele>
 <time>2022-05-04T05:38:53Z</time>
</trkpt>
<trkpt lat="35.414276" lon="136.997596">
 <ele>176.3</ele>
 <time>2022-05-04T05:38:53Z</time>
</trkpt>
<trkpt lat="35.414344" lon="136.997531">
 <ele>181.4</ele>
 <time>2022-05-04T05:38:53Z</time>
</trkpt>
<trkpt lat="35.414413" lon="136.997478">
 <ele>185.2</ele>
 <time>2022-05-04T05:38:53Z</time>
</trkpt>
<trkpt lat="35.414507" lon="136.997478">
 <ele>188</ele>
 <time>2022-05-04T05:38:54Z</time>
</trkpt>
<trkpt lat="35.414585" lon="136.997446">
 <ele>190.8</ele>
 <time>2022-05-04T05:38:54Z</time>
</trkpt>
<trkpt lat="35.414696" lon="136.997392">
 <ele>195.3</ele>
 <time>2022-05-04T05:38:55Z</time>
</trkpt>
<trkpt lat="35.414791" lon="136.997338">
 <ele>197.5</ele>
 <time>2022-05-04T05:38:55Z</time>
</trkpt>
<trkpt lat="35.414876" lon="136.997381">
 <ele>201</ele>
 <time>2022-05-04T05:38:56Z</time>
</trkpt>
<trkpt lat="35.414971" lon="136.997403">
 <ele>204.5</ele>
 <time>2022-05-04T05:38:56Z</time>
</trkpt>
<trkpt lat="35.415091" lon="136.997413">
 <ele>208.1</ele>
 <time>2022-05-04T05:38:56Z</time>
</trkpt>
<trkpt lat="35.415297" lon="136.997446">
 <ele>212.5</ele>
 <time>2022-05-04T05:38:56Z</time>
</trkpt>
<trkpt lat="35.415434" lon="136.997478">
 <ele>215.8</ele>
 <time>2022-05-04T05:38:57Z</time>
</trkpt>
<trkpt lat="35.415554" lon="136.997531">
 <ele>218.4</ele>
 <time>2022-05-04T05:38:57Z</time>
</trkpt>
<trkpt lat="35.415709" lon="136.997564">
 <ele>222.5</ele>
 <time>2022-05-04T05:38:58Z</time>
</trkpt>
<trkpt lat="35.415812" lon="136.997585">
 <ele>224.7</ele>
 <time>2022-05-04T05:38:58Z</time>
</trkpt>
<trkpt lat="35.415949" lon="136.997660">
 <ele>226.3</ele>
 <time>2022-05-04T05:38:59Z</time>
</trkpt>
<trkpt lat="35.416087" lon="136.997725">
 <ele>227</ele>
 <time>2022-05-04T05:38:59Z</time>
</trkpt>
<trkpt lat="35.416224" lon="136.997767">
 <ele>229.5</ele>
 <time>2022-05-04T05:38:59Z</time>
</trkpt>
<trkpt lat="35.416318" lon="136.997800">
 <ele>231.7</ele>
 <time>2022-05-04T05:38:59Z</time>
</trkpt>
<trkpt lat="35.416404" lon="136.997800">
 <ele>233.4</ele>
 <time>2022-05-04T05:39:00Z</time>
</trkpt>
<trkpt lat="35.416542" lon="136.997843">
 <ele>237.5</ele>
 <time>2022-05-04T05:39:00Z</time>
</trkpt>
<trkpt lat="35.416636" lon="136.997843">
 <ele>240.4</ele>
 <time>2022-05-04T05:39:01Z</time>
</trkpt>
<trkpt lat="35.416730" lon="136.997907">
 <ele>241.1</ele>
 <time>2022-05-04T05:39:01Z</time>
</trkpt>
<trkpt lat="35.416782" lon="136.998004">
 <ele>241.7</ele>
 <time>2022-05-04T05:39:02Z</time>
</trkpt>
<trkpt lat="35.416928" lon="136.998057">
 <ele>246.2</ele>
 <time>2022-05-04T05:39:02Z</time>
</trkpt>
<trkpt lat="35.416962" lon="136.998143">
 <ele>249.5</ele>
 <time>2022-05-04T05:39:02Z</time>
</trkpt>
<trkpt lat="35.417057" lon="136.998197">
 <ele>253.7</ele>
 <time>2022-05-04T05:39:02Z</time>
</trkpt>
<trkpt lat="35.417057" lon="136.998272">
 <ele>256.6</ele>
 <time>2022-05-04T05:39:03Z</time>
</trkpt>
<trkpt lat="35.417074" lon="136.998368">
 <ele>260.4</ele>
 <time>2022-05-04T05:39:03Z</time>
</trkpt>
<trkpt lat="35.417074" lon="136.998443">
 <ele>263.6</ele>
 <time>2022-05-04T05:39:04Z</time>
</trkpt>
<trkpt lat="35.417125" lon="136.998508">
 <ele>266</ele>
 <time>2022-05-04T05:39:04Z</time>
</trkpt>
<trkpt lat="35.417160" lon="136.998594">
 <ele>270</ele>
 <time>2022-05-04T05:39:05Z</time>
</trkpt>
<trkpt lat="35.417168" lon="136.998658">
 <ele>273.4</ele>
 <time>2022-05-04T05:39:05Z</time>
</trkpt>
<trkpt lat="35.417202" lon="136.998722">
 <ele>275.5</ele>
 <time>2022-05-04T05:39:05Z</time>
</trkpt>
<trkpt lat="35.417220" lon="136.998787">
 <ele>278.9</ele>
 <time>2022-05-04T05:39:06Z</time>
</trkpt>
<trkpt lat="35.417271" lon="136.998894">
 <ele>281.5</ele>
 <time>2022-05-04T05:39:06Z</time>
</trkpt>
<trkpt lat="35.417280" lon="136.999012">
 <ele>284</ele>
 <time>2022-05-04T05:39:06Z</time>
</trkpt>
<trkpt lat="35.417323" lon="136.999119">
 <ele>284.9</ele>
 <time>2022-05-04T05:39:07Z</time>
</trkpt>
<trkpt lat="35.417366" lon="136.999237">
 <ele>287</ele>
 <time>2022-05-04T05:39:07Z</time>
</trkpt>
<trkpt lat="35.417443" lon="136.999323">
 <ele>288.1</ele>
 <time>2022-05-04T05:39:08Z</time>
</trkpt>
<trkpt lat="35.417563" lon="136.999398">
 <ele>290.8</ele>
 <time>2022-05-04T05:39:08Z</time>
</trkpt>
<trkpt lat="35.417700" lon="136.999463">
 <ele>294</ele>
 <time>2022-05-04T05:39:08Z</time>
</trkpt>
<trkpt lat="35.417769" lon="136.999484">
 <ele>295.8</ele>
 <time>2022-05-04T05:39:09Z</time>
</trkpt>
<trkpt lat="35.417881" lon="136.999538">
 <ele>298.2</ele>
 <time>2022-05-04T05:39:09Z</time>
</trkpt>
<trkpt lat="35.417975" lon="136.999570">
 <ele>299.6</ele>
 <time>2022-05-04T05:39:09Z</time>
</trkpt>
<trkpt lat="35.418095" lon="136.999548">
 <ele>301.8</ele>
 <time>2022-05-04T05:39:10Z</time>
</trkpt>
<trkpt lat="35.418198" lon="136.999548">
 <ele>303.3</ele>
 <time>2022-05-04T05:39:10Z</time>
</trkpt>
<trkpt lat="35.418387" lon="136.999495">
 <ele>305.7</ele>
 <time>2022-05-04T05:39:11Z</time>
</trkpt>
<trkpt lat="35.418559" lon="136.999430">
 <ele>308</ele>
 <time>2022-05-04T05:39:11Z</time>
</trkpt>
<trkpt lat="35.418662" lon="136.999355">
 <ele>309.9</ele>
 <time>2022-05-04T05:39:11Z</time>
</trkpt>
<trkpt lat="35.418739" lon="136.999280">
 <ele>311.2</ele>
 <time>2022-05-04T05:39:12Z</time>
</trkpt>
<trkpt lat="35.418816" lon="136.999194">
 <ele>312.1</ele>
 <time>2022-05-04T05:39:12Z</time>
</trkpt>
<trkpt lat="35.418893" lon="136.999141">
 <ele>312.8</ele>
 <time>2022-05-04T05:39:12Z</time>
</trkpt>
<trkpt lat="35.419031" lon="136.998948">
 <ele>313</ele>
 <time>2022-05-04T05:39:13Z</time>
</trkpt>
<trkpt lat="35.419031" lon="136.998948">
 <ele>313</ele>
 <time>2022-05-04T05:39:13Z</time>
</trkpt>
<trkpt lat="35.418893" lon="136.999141">
 <ele>312.8</ele>
 <time>2022-05-04T05:39:14Z</time>
</trkpt>
<trkpt lat="35.418816" lon="136.999194">
 <ele>312.1</ele>
 <time>2022-05-04T05:39:14Z</time>
</trkpt>
<trkpt lat="35.418739" lon="136.999280">
 <ele>311.2</ele>
 <time>2022-05-04T05:39:14Z</time>
</trkpt>
<trkpt lat="35.418662" lon="136.999355">
 <ele>309.9</ele>
 <time>2022-05-04T05:39:15Z</time>
</trkpt>
<trkpt lat="35.418559" lon="136.999430">
 <ele>308</ele>
 <time>2022-05-04T05:39:15Z</time>
</trkpt>
<trkpt lat="35.418387" lon="136.999495">
 <ele>305.7</ele>
 <time>2022-05-04T05:39:15Z</time>
</trkpt>
<trkpt lat="35.418198" lon="136.999548">
 <ele>303.3</ele>
 <time>2022-05-04T05:39:16Z</time>
</trkpt>
<trkpt lat="35.418095" lon="136.999548">
 <ele>301.8</ele>
 <time>2022-05-04T05:39:16Z</time>
</trkpt>
<trkpt lat="35.417975" lon="136.999570">
 <ele>299.6</ele>
 <time>2022-05-04T05:39:17Z</time>
</trkpt>
<trkpt lat="35.417881" lon="136.999538">
 <ele>298.2</ele>
 <time>2022-05-04T05:39:17Z</time>
</trkpt>
<trkpt lat="35.417769" lon="136.999484">
 <ele>295.8</ele>
 <time>2022-05-04T05:39:17Z</time>
</trkpt>
<trkpt lat="35.417700" lon="136.999463">
 <ele>294</ele>
 <time>2022-05-04T05:39:18Z</time>
</trkpt>
<trkpt lat="35.417563" lon="136.999398">
 <ele>290.8</ele>
 <time>2022-05-04T05:39:18Z</time>
</trkpt>
<trkpt lat="35.417443" lon="136.999323">
 <ele>288.1</ele>
 <time>2022-05-04T05:39:18Z</time>
</trkpt>
<trkpt lat="35.417366" lon="136.999237">
 <ele>287</ele>
 <time>2022-05-04T05:39:19Z</time>
</trkpt>
<trkpt lat="35.417323" lon="136.999119">
 <ele>284.9</ele>
 <time>2022-05-04T05:39:19Z</time>
</trkpt>
<trkpt lat="35.417280" lon="136.999012">
 <ele>284</ele>
 <time>2022-05-04T05:39:20Z</time>
</trkpt>
<trkpt lat="35.417271" lon="136.998894">
 <ele>281.5</ele>
 <time>2022-05-04T05:39:20Z</time>
</trkpt>
<trkpt lat="35.417220" lon="136.998787">
 <ele>278.9</ele>
 <time>2022-05-04T05:39:20Z</time>
</trkpt>
<trkpt lat="35.417202" lon="136.998722">
 <ele>275.5</ele>
 <time>2022-05-04T05:39:20Z</time>
</trkpt>
<trkpt lat="35.417168" lon="136.998658">
 <ele>273.4</ele>
 <time>2022-05-04T05:39:21Z</time>
</trkpt>
<trkpt lat="35.417160" lon="136.998594">
 <ele>270</ele>
 <time>2022-05-04T05:39:21Z</time>
</trkpt>
<trkpt lat="35.417125" lon="136.998508">
 <ele>266</ele>
 <time>2022-05-04T05:39:22Z</time>
</trkpt>
<trkpt lat="35.417074" lon="136.998443">
 <ele>263.6</ele>
 <time>2022-05-04T05:39:22Z</time>
</trkpt>
<trkpt lat="35.417074" lon="136.998368">
 <ele>260.4</ele>
 <time>2022-05-04T05:39:22Z</time>
</trkpt>
<trkpt lat="35.417057" lon="136.998272">
 <ele>256.6</ele>
 <time>2022-05-04T05:39:23Z</time>
</trkpt>
<trkpt lat="35.416962" lon="136.998143">
 <ele>249.5</ele>
 <time>2022-05-04T05:39:23Z</time>
</trkpt>
<trkpt lat="35.416928" lon="136.998057">
 <ele>246.2</ele>
 <time>2022-05-04T05:39:23Z</time>
</trkpt>
<trkpt lat="35.416782" lon="136.998004">
 <ele>241.7</ele>
 <time>2022-05-04T05:39:24Z</time>
</trkpt>
<trkpt lat="35.416730" lon="136.997907">
 <ele>241.1</ele>
 <time>2022-05-04T05:39:24Z</time>
</trkpt>
<trkpt lat="35.416636" lon="136.997843">
 <ele>240.4</ele>
 <time>2022-05-04T05:39:24Z</time>
</trkpt>
<trkpt lat="35.416542" lon="136.997843">
 <ele>237.5</ele>
 <time>2022-05-04T05:39:24Z</time>
</trkpt>
<trkpt lat="35.416404" lon="136.997800">
 <ele>233.4</ele>
 <time>2022-05-04T05:39:25Z</time>
</trkpt>
<trkpt lat="35.416318" lon="136.997800">
 <ele>231.7</ele>
 <time>2022-05-04T05:39:25Z</time>
</trkpt>
<trkpt lat="35.416224" lon="136.997767">
 <ele>229.5</ele>
 <time>2022-05-04T05:39:26Z</time>
</trkpt>
<trkpt lat="35.416087" lon="136.997725">
 <ele>227</ele>
 <time>2022-05-04T05:39:26Z</time>
</trkpt>
<trkpt lat="35.415949" lon="136.997660">
 <ele>226.3</ele>
 <time>2022-05-04T05:39:26Z</time>
</trkpt>
<trkpt lat="35.415812" lon="136.997585">
 <ele>224.7</ele>
 <time>2022-05-04T05:39:26Z</time>
</trkpt>
<trkpt lat="35.415709" lon="136.997564">
 <ele>222.5</ele>
 <time>2022-05-04T05:39:27Z</time>
</trkpt>
<trkpt lat="35.415554" lon="136.997531">
 <ele>218.4</ele>
 <time>2022-05-04T05:39:27Z</time>
</trkpt>
<trkpt lat="35.415434" lon="136.997478">
 <ele>215.8</ele>
 <time>2022-05-04T05:39:27Z</time>
</trkpt>
<trkpt lat="35.415297" lon="136.997446">
 <ele>212.5</ele>
 <time>2022-05-04T05:39:27Z</time>
</trkpt>
<trkpt lat="35.415091" lon="136.997413">
 <ele>208.1</ele>
 <time>2022-05-04T05:39:28Z</time>
</trkpt>
<trkpt lat="35.414971" lon="136.997403">
 <ele>204.5</ele>
 <time>2022-05-04T05:39:28Z</time>
</trkpt>
<trkpt lat="35.414876" lon="136.997381">
 <ele>201</ele>
 <time>2022-05-04T05:39:28Z</time>
</trkpt>
<trkpt lat="35.414791" lon="136.997338">
 <ele>197.5</ele>
 <time>2022-05-04T05:39:28Z</time>
</trkpt>
<trkpt lat="35.414696" lon="136.997392">
 <ele>195.3</ele>
 <time>2022-05-04T05:39:29Z</time>
</trkpt>
<trkpt lat="35.414585" lon="136.997446">
 <ele>190.8</ele>
 <time>2022-05-04T05:39:29Z</time>
</trkpt>
<trkpt lat="35.414507" lon="136.997478">
 <ele>188</ele>
 <time>2022-05-04T05:39:29Z</time>
</trkpt>
<trkpt lat="35.414413" lon="136.997478">
 <ele>185.2</ele>
 <time>2022-05-04T05:39:30Z</time>
</trkpt>
<trkpt lat="35.414344" lon="136.997531">
 <ele>181.4</ele>
 <time>2022-05-04T05:39:30Z</time>
</trkpt>
<trkpt lat="35.414276" lon="136.997596">
 <ele>176.3</ele>
 <time>2022-05-04T05:39:30Z</time>
</trkpt>
<trkpt lat="35.414164" lon="136.997617">
 <ele>169.2</ele>
 <time>2022-05-04T05:39:31Z</time>
</trkpt>
<trkpt lat="35.414121" lon="136.997692">
 <ele>166</ele>
 <time>2022-05-04T05:39:31Z</time>
</trkpt>
<trkpt lat="35.414070" lon="136.997789">
 <ele>162.3</ele>
 <time>2022-05-04T05:39:31Z</time>
</trkpt>
<trkpt lat="35.413975" lon="136.997853">
 <ele>156.4</ele>
 <time>2022-05-04T05:39:31Z</time>
</trkpt>
<trkpt lat="35.413889" lon="136.997886">
 <ele>152.8</ele>
 <time>2022-05-04T05:39:32Z</time>
</trkpt>
<trkpt lat="35.413786" lon="136.997928">
 <ele>148.1</ele>
 <time>2022-05-04T05:39:32Z</time>
</trkpt>
<trkpt lat="35.413718" lon="136.998004">
 <ele>144.8</ele>
 <time>2022-05-04T05:39:32Z</time>
</trkpt>
<trkpt lat="35.413640" lon="136.998132">
 <ele>138.2</ele>
 <time>2022-05-04T05:39:32Z</time>
</trkpt>
<trkpt lat="35.413580" lon="136.998229">
 <ele>133.7</ele>
 <time>2022-05-04T05:39:33Z</time>
</trkpt>
<trkpt lat="35.413495" lon="136.998272">
 <ele>131.5</ele>
 <time>2022-05-04T05:39:33Z</time>
</trkpt>
<trkpt lat="35.413520" lon="136.998336">
 <ele>130.7</ele>
 <time>2022-05-04T05:39:33Z</time>
</trkpt>
<trkpt lat="35.413452" lon="136.998368">
 <ele>128.9</ele>
 <time>2022-05-04T05:39:33Z</time>
</trkpt>
<trkpt lat="35.413426" lon="136.998443">
 <ele>126.5</ele>
 <time>2022-05-04T05:39:34Z</time>
</trkpt>
<trkpt lat="35.413331" lon="136.998422">
 <ele>125</ele>
 <time>2022-05-04T05:39:34Z</time>
</trkpt>
<trkpt lat="35.413254" lon="136.998390">
 <ele>119.9</ele>
 <time>2022-05-04T05:39:34Z</time>
</trkpt>
<trkpt lat="35.413220" lon="136.998304">
 <ele>118.6</ele>
 <time>2022-05-04T05:39:34Z</time>
</trkpt>
<trkpt lat="35.413143" lon="136.998293">
 <ele>117.2</ele>
 <time>2022-05-04T05:39:35Z</time>
</trkpt>
<trkpt lat="35.413151" lon="136.998207">
 <ele>118.2</ele>
 <time>2022-05-04T05:39:35Z</time>
</trkpt>
<trkpt lat="35.413177" lon="136.998068">
 <ele>119</ele>
 <time>2022-05-04T05:39:35Z</time>
</trkpt>
<trkpt lat="35.413289" lon="136.997864">
 <ele>120.4</ele>
 <time>2022-05-04T05:39:35Z</time>
</trkpt>
<trkpt lat="35.413392" lon="136.997682">
 <ele>121.2</ele>
 <time>2022-05-04T05:39:36Z</time>
</trkpt>
<trkpt lat="35.413512" lon="136.997478">
 <ele>122.8</ele>
 <time>2022-05-04T05:39:36Z</time>
</trkpt>
<trkpt lat="35.413598" lon="136.997349">
 <ele>123.1</ele>
 <time>2022-05-04T05:39:36Z</time>
</trkpt>
<trkpt lat="35.413675" lon="136.997177">
 <ele>122.7</ele>
 <time>2022-05-04T05:39:37Z</time>
</trkpt>
<trkpt lat="35.413761" lon="136.996963">
 <ele>124.4</ele>
 <time>2022-05-04T05:39:37Z</time>
</trkpt>
<trkpt lat="35.413864" lon="136.996770">
 <ele>126.4</ele>
 <time>2022-05-04T05:39:37Z</time>
</trkpt>
</trkseg>
</trk>
</gpx>

